KAMW/AMW METAR and TAF weather

Enter ICAO airport designator
Station Type Date Time Source
KAMW METAR 2019/10/18 05:53 UTC NOAA

KAMW 180553Z AUTO 14009KT 10SM CLR 08/06 A2989 RMK AO2 SLP118 T00830056 10122 20072 401671017 58005


Station Type Date Time Source
KAMW Decoded METAR 2019/10/18 05:53 UTC NOAA

AMES MUNICIPAL AIRPORT, IA, United States (KAMW) 41-59N 93-37W 279M
Oct 18, 2019 - 01:53 AM EDT / 2019.10.18 0553 UTC
Wind: from the SE (140 degrees) at 10 MPH (9 KT):0
Visibility: 10 mile(s):0
Sky conditions: clear
Temperature: 46.9 F (8.3 C)
Dew Point: 42.1 F (5.6 C)
Relative Humidity: 83%
Pressure (altimeter): 29.89 in. Hg (1012 hPa)
Pressure tendency: 0.01 inches (0.5 hPa) lower than three hours ago
ob: KAMW 180553Z AUTO 14009KT 10SM CLR 08/06 A2989 RMK AO2 SLP118 T00830056 10122 20072 401671017 58005
cycle: 6

Station Type Date Time Source
KAMW TAF UTC NOAA

Error!

Example: see airport list